sensor_id;sensor_type;location;lat;lon;timestamp;pressure;altitude;pressure_sealevel;temperature;humidity
29417;BME280;28421;51.030;4.006;2023-05-21T00:01:38;101821.31;;;14.23;63.24
29417;BME280;28421;51.030;4.006;2023-05-21T00:04:04;101829.41;;;14.31;62.72
29417;BME280;28421;51.030;4.006;2023-05-21T00:06:33;101797.34;;;14.12;62.92
29417;BME280;28421;51.030;4.006;2023-05-21T00:09:01;101815.22;;;14.21;62.73
29417;BME280;28421;51.030;4.006;2023-05-21T00:11:27;101821.31;;;14.23;62.92
29417;BME280;28421;51.030;4.006;2023-05-21T00:13:53;101823.31;;;14.29;62.95
29417;BME280;28421;51.030;4.006;2023-05-21T00:16:18;101814.72;;;14.26;62.89
29417;BME280;28421;51.030;4.006;2023-05-21T00:18:44;101805.78;;;14.09;63.10
29417;BME280;28421;51.030;4.006;2023-05-21T00:21:10;101814.22;;;14.14;63.24
29417;BME280;28421;51.030;4.006;2023-05-21T00:23:36;101834.16;;;14.29;63.62
29417;BME280;28421;51.030;4.006;2023-05-21T00:26:03;101806.28;;;14.12;63.69
29417;BME280;28421;51.030;4.006;2023-05-21T00:28:29;101832.28;;;14.22;64.01
29417;BME280;28421;51.030;4.006;2023-05-21T00:30:55;101783.19;;;13.85;63.47
29417;BME280;28421;51.030;4.006;2023-05-21T00:33:20;101812.03;;;14.01;64.44
29417;BME280;28421;51.030;4.006;2023-05-21T00:35:46;101824.56;;;14.02;64.60
29417;BME280;28421;51.030;4.006;2023-05-21T00:38:11;101812.56;;;13.97;65.28
29417;BME280;28421;51.030;4.006;2023-05-21T00:40:38;101798.06;;;13.81;65.37
29417;BME280;28421;51.030;4.006;2023-05-21T00:43:05;101801.25;;;13.77;66.21
29417;BME280;28421;51.030;4.006;2023-05-21T00:45:34;101808.38;;;13.70;66.97
29417;BME280;28421;51.030;4.006;2023-05-21T00:48:01;101824.22;;;13.81;66.47
29417;BME280;28421;51.030;4.006;2023-05-21T00:50:28;101815.63;;;13.61;67.65
29417;BME280;28421;51.030;4.006;2023-05-21T00:52:55;101817.31;;;13.70;67.08
29417;BME280;28421;51.030;4.006;2023-05-21T00:55:21;101825.09;;;13.73;67.12
29417;BME280;28421;51.030;4.006;2023-05-21T00:57:46;101796.03;;;13.51;67.20
29417;BME280;28421;51.030;4.006;2023-05-21T01:00:14;101781.00;;;13.40;67.58
29417;BME280;28421;51.030;4.006;2023-05-21T01:02:39;101827.59;;;13.58;67.84
29417;BME280;28421;51.030;4.006;2023-05-21T01:05:05;101807.50;;;13.36;68.36
29417;BME280;28421;51.030;4.006;2023-05-21T01:07:37;101803.44;;;13.24;69.25
29417;BME280;28421;51.030;4.006;2023-05-21T01:10:04;101805.75;;;13.19;69.34
29417;BME280;28421;51.030;4.006;2023-05-21T01:12:32;101805.56;;;13.12;69.51
29417;BME280;28421;51.030;4.006;2023-05-21T01:15:00;101816.22;;;13.22;68.90
29417;BME280;28421;51.030;4.006;2023-05-21T01:17:27;101811.69;;;13.31;68.81
29417;BME280;28421;51.030;4.006;2023-05-21T01:19:55;101810.50;;;13.25;69.29
29417;BME280;28421;51.030;4.006;2023-05-21T01:22:22;101833.59;;;13.11;69.97
29417;BME280;28421;51.030;4.006;2023-05-21T01:24:49;101778.53;;;12.96;69.76
29417;BME280;28421;51.030;4.006;2023-05-21T01:27:15;101787.66;;;13.03;69.68
29417;BME280;28421;51.030;4.006;2023-05-21T01:29:40;101808.09;;;13.14;69.79
29417;BME280;28421;51.030;4.006;2023-05-21T01:32:21;101830.78;;;13.29;69.94
29417;BME280;28421;51.030;4.006;2023-05-21T01:35:13;101801.50;;;13.08;70.41
29417;BME280;28421;51.030;4.006;2023-05-21T01:37:52;101829.84;;;13.04;70.87
29417;BME280;28421;51.030;4.006;2023-05-21T01:40:26;101785.69;;;12.71;71.31
29417;BME280;28421;51.030;4.006;2023-05-21T01:42:54;101816.63;;;12.93;71.08
29417;BME280;28421;51.030;4.006;2023-05-21T01:45:21;101822.06;;;13.01;71.26
29417;BME280;28421;51.030;4.006;2023-05-21T01:47:49;101801.69;;;12.64;72.50
29417;BME280;28421;51.030;4.006;2023-05-21T01:50:17;101798.13;;;12.56;72.49
29417;BME280;28421;51.030;4.006;2023-05-21T01:52:53;101817.91;;;12.73;72.54
29417;BME280;28421;51.030;4.006;2023-05-21T01:55:20;101830.09;;;12.85;72.46
29417;BME280;28421;51.030;4.006;2023-05-21T01:57:53;101804.59;;;12.71;72.41
29417;BME280;28421;51.030;4.006;2023-05-21T02:00:23;101818.56;;;12.66;72.78
29417;BME280;28421;51.030;4.006;2023-05-21T02:02:49;101777.81;;;12.43;72.79
29417;BME280;28421;51.030;4.006;2023-05-21T02:05:16;101829.53;;;12.65;73.51
29417;BME280;28421;51.030;4.006;2023-05-21T02:07:42;101830.72;;;12.71;73.51
29417;BME280;28421;51.030;4.006;2023-05-21T02:10:09;101780.69;;;12.42;73.11
29417;BME280;28421;51.030;4.006;2023-05-21T02:12:35;101799.56;;;12.42;73.85
29417;BME280;28421;51.030;4.006;2023-05-21T02:15:01;101779.75;;;12.25;74.10
29417;BME280;28421;51.030;4.006;2023-05-21T02:17:27;101794.72;;;12.46;73.95
29417;BME280;28421;51.030;4.006;2023-05-21T02:19:55;101794.50;;;12.39;74.33
29417;BME280;28421;51.030;4.006;2023-05-21T02:22:21;101801.16;;;12.53;73.89
29417;BME280;28421;51.030;4.006;2023-05-21T02:24:47;101783.22;;;12.43;73.63
29417;BME280;28421;51.030;4.006;2023-05-21T02:27:13;101805.53;;;12.54;72.93
29417;BME280;28421;51.030;4.006;2023-05-21T02:29:41;101781.84;;;12.39;73.50
29417;BME280;28421;51.030;4.006;2023-05-21T02:32:07;101815.19;;;12.64;73.66
29417;BME280;28421;51.030;4.006;2023-05-21T02:34:32;101788.69;;;12.26;74.23
29417;BME280;28421;51.030;4.006;2023-05-21T02:36:59;101783.19;;;12.35;74.02
29417;BME280;28421;51.030;4.006;2023-05-21T02:39:24;101788.13;;;12.40;74.10
29417;BME280;28421;51.030;4.006;2023-05-21T02:41:51;101811.91;;;12.44;74.75
29417;BME280;28421;51.030;4.006;2023-05-21T02:44:17;101753.88;;;12.06;75.13
29417;BME280;28421;51.030;4.006;2023-05-21T02:46:43;101784.16;;;12.26;74.93
29417;BME280;28421;51.030;4.006;2023-05-21T02:49:09;101808.63;;;12.33;75.13
29417;BME280;28421;51.030;4.006;2023-05-21T02:51:35;101778.63;;;12.28;74.98
29417;BME280;28421;51.030;4.006;2023-05-21T02:54:00;101790.13;;;12.38;74.55
29417;BME280;28421;51.030;4.006;2023-05-21T02:56:26;101755.63;;;12.15;74.82
29417;BME280;28421;51.030;4.006;2023-05-21T02:58:51;101792.75;;;12.30;75.38
29417;BME280;28421;51.030;4.006;2023-05-21T03:01:17;101782.81;;;12.30;74.93
29417;BME280;28421;51.030;4.006;2023-05-21T03:03:42;101783.22;;;12.43;74.53
29417;BME280;28421;51.030;4.006;2023-05-21T03:06:08;101771.47;;;12.18;75.28
29417;BME280;28421;51.030;4.006;2023-05-21T03:08:34;101786.84;;;12.26;75.25
29417;BME280;28421;51.030;4.006;2023-05-21T03:11:01;101816.25;;;12.37;75.50
29417;BME280;28421;51.030;4.006;2023-05-21T03:13:26;101773.00;;;12.21;74.97
29417;BME280;28421;51.030;4.006;2023-05-21T03:15:52;101766.25;;;12.17;75.17
29417;BME280;28421;51.030;4.006;2023-05-21T03:18:21;101772.78;;;12.14;75.90
29417;BME280;28421;51.030;4.006;2023-05-21T03:20:47;101761.47;;;12.11;75.82
29417;BME280;28421;51.030;4.006;2023-05-21T03:23:13;101797.00;;;12.32;75.71
29417;BME280;28421;51.030;4.006;2023-05-21T03:25:39;101756.41;;;12.08;75.93
29417;BME280;28421;51.030;4.006;2023-05-21T03:28:04;101792.41;;;12.25;75.84
29417;BME280;28421;51.030;4.006;2023-05-21T03:30:43;101743.25;;;12.05;75.98
29417;BME280;28421;51.030;4.006;2023-05-21T03:33:34;101778.94;;;12.25;76.38
29417;BME280;28421;51.030;4.006;2023-05-21T03:36:05;101778.81;;;12.08;76.89
29417;BME280;28421;51.030;4.006;2023-05-21T03:38:35;101776.50;;;12.13;76.63
29417;BME280;28421;51.030;4.006;2023-05-21T03:41:00;101778.19;;;12.14;76.82
29417;BME280;28421;51.030;4.006;2023-05-21T03:43:26;101775.66;;;12.13;76.53
29417;BME280;28421;51.030;4.006;2023-05-21T03:45:53;101810.50;;;12.32;77.02
29417;BME280;28421;51.030;4.006;2023-05-21T03:48:41;101774.22;;;12.01;77.37
29417;BME280;28421;51.030;4.006;2023-05-21T03:51:09;101769.00;;;11.99;77.65
29417;BME280;28421;51.030;4.006;2023-05-21T03:53:35;101792.47;;;12.07;77.83
29417;BME280;28421;51.030;4.006;2023-05-21T03:56:01;101748.75;;;11.95;77.52
29417;BME280;28421;51.030;4.006;2023-05-21T03:58:27;101795.53;;;12.12;78.52
29417;BME280;28421;51.030;4.006;2023-05-21T04:00:53;101775.91;;;12.02;78.23
29417;BME280;28421;51.030;4.006;2023-05-21T04:03:18;101781.88;;;12.13;78.08
29417;BME280;28421;51.030;4.006;2023-05-21T04:05:44;101763.81;;;12.06;78.28
29417;BME280;28421;51.030;4.006;2023-05-21T04:08:09;101795.63;;;12.28;77.86
29417;BME280;28421;51.030;4.006;2023-05-21T04:10:35;101817.06;;;12.38;78.55
29417;BME280;28421;51.030;4.006;2023-05-21T04:13:00;101778.53;;;12.11;78.74
29417;BME280;28421;51.030;4.006;2023-05-21T04:15:26;101816.50;;;12.26;79.54
29417;BME280;28421;51.030;4.006;2023-05-21T04:17:53;101778.88;;;12.16;79.04
29417;BME280;28421;51.030;4.006;2023-05-21T04:20:19;101795.66;;;12.10;80.07
29417;BME280;28421;51.030;4.006;2023-05-21T04:22:45;101806.78;;;12.33;79.68
29417;BME280;28421;51.030;4.006;2023-05-21T04:25:11;101782.81;;;12.30;79.43
29417;BME280;28421;51.030;4.006;2023-05-21T04:27:37;101798.69;;;12.33;79.87
29417;BME280;28421;51.030;4.006;2023-05-21T04:30:04;101801.25;;;12.43;79.11
29417;BME280;28421;51.030;4.006;2023-05-21T04:32:31;101782.03;;;12.38;78.72
29417;BME280;28421;51.030;4.006;2023-05-21T04:34:59;101788.28;;;12.47;78.77
29417;BME280;28421;51.030;4.006;2023-05-21T04:37:28;101784.66;;;12.64;78.62
29417;BME280;28421;51.030;4.006;2023-05-21T04:39:58;101761.25;;;12.30;78.93
29417;BME280;28421;51.030;4.006;2023-05-21T04:42:26;101796.66;;;12.69;78.72
29417;BME280;28421;51.030;4.006;2023-05-21T04:44:53;101791.09;;;12.71;78.47
29417;BME280;28421;51.030;4.006;2023-05-21T04:47:20;101791.63;;;12.75;78.32
29417;BME280;28421;51.030;4.006;2023-05-21T04:49:46;101784.91;;;12.87;78.09
29417;BME280;28421;51.030;4.006;2023-05-21T04:52:12;101782.38;;;12.93;77.50
29417;BME280;28421;51.030;4.006;2023-05-21T04:54:38;101770.41;;;12.88;77.73
29417;BME280;28421;51.030;4.006;2023-05-21T04:57:06;101770.19;;;12.65;79.02
29417;BME280;28421;51.030;4.006;2023-05-21T04:59:33;101792.69;;;12.90;78.34
29417;BME280;28421;51.030;4.006;2023-05-21T05:01:58;101779.03;;;12.91;78.07
29417;BME280;28421;51.030;4.006;2023-05-21T05:04:24;101795.75;;;13.03;78.21
29417;BME280;28421;51.030;4.006;2023-05-21T05:06:49;101773.94;;;12.88;78.89
29417;BME280;28421;51.030;4.006;2023-05-21T05:09:16;101772.59;;;12.84;78.43
29417;BME280;28421;51.030;4.006;2023-05-21T05:11:42;101778.16;;;12.83;79.14
29417;BME280;28421;51.030;4.006;2023-05-21T05:14:07;101798.28;;;13.05;78.97
29417;BME280;28421;51.030;4.006;2023-05-21T05:16:33;101778.56;;;13.12;78.58
29417;BME280;28421;51.030;4.006;2023-05-21T05:19:00;101787.38;;;13.23;78.37
29417;BME280;28421;51.030;4.006;2023-05-21T05:21:25;101783.44;;;13.01;79.25
29417;BME280;28421;51.030;4.006;2023-05-21T05:23:51;101769.09;;;13.00;79.67
29417;BME280;28421;51.030;4.006;2023-05-21T05:26:20;101783.19;;;13.28;79.16
29417;BME280;28421;51.030;4.006;2023-05-21T05:28:46;101799.22;;;13.38;79.02
29417;BME280;28421;51.030;4.006;2023-05-21T05:31:12;101770.19;;;13.48;77.96
29417;BME280;28421;51.030;4.006;2023-05-21T05:33:38;101755.66;;;13.25;77.83
29417;BME280;28421;51.030;4.006;2023-05-21T05:36:06;101799.91;;;13.48;78.28
29417;BME280;28421;51.030;4.006;2023-05-21T05:38:33;101796.03;;;13.67;78.60
29417;BME280;28421;51.030;4.006;2023-05-21T05:40:58;101766.16;;;13.60;77.95
29417;BME280;28421;51.030;4.006;2023-05-21T05:43:25;101814.75;;;13.93;77.94
29417;BME280;28421;51.030;4.006;2023-05-21T05:45:51;101786.72;;;14.02;77.66
29417;BME280;28421;51.030;4.006;2023-05-21T05:48:17;101797.53;;;13.94;77.54
29417;BME280;28421;51.030;4.006;2023-05-21T05:50:44;101751.06;;;13.99;76.63
29417;BME280;28421;51.030;4.006;2023-05-21T05:53:10;101793.59;;;14.13;76.52
29417;BME280;28421;51.030;4.006;2023-05-21T05:55:38;101744.81;;;13.90;76.09
29417;BME280;28421;51.030;4.006;2023-05-21T05:58:03;101785.75;;;14.34;76.52
29417;BME280;28421;51.030;4.006;2023-05-21T06:00:30;101788.25;;;14.60;75.43
29417;BME280;28421;51.030;4.006;2023-05-21T06:02:58;101765.94;;;14.58;74.97
29417;BME280;28421;51.030;4.006;2023-05-21T06:05:24;101797.53;;;14.66;75.83
29417;BME280;28421;51.030;4.006;2023-05-21T06:07:49;101756.47;;;14.46;75.60
29417;BME280;28421;51.030;4.006;2023-05-21T06:10:15;101810.69;;;14.77;75.67
29417;BME280;28421;51.030;4.006;2023-05-21T06:12:40;101764.03;;;14.67;75.20
29417;BME280;28421;51.030;4.006;2023-05-21T06:15:06;101782.94;;;14.75;74.81
29417;BME280;28421;51.030;4.006;2023-05-21T06:17:33;101777.25;;;14.62;75.00
29417;BME280;28421;51.030;4.006;2023-05-21T06:19:59;101773.75;;;14.37;75.65
29417;BME280;28421;51.030;4.006;2023-05-21T06:22:26;101763.78;;;14.37;75.93
29417;BME280;28421;51.030;4.006;2023-05-21T06:24:51;101769.09;;;14.70;76.23
29417;BME280;28421;51.030;4.006;2023-05-21T06:27:17;101764.25;;;14.57;75.61
29417;BME280;28421;51.030;4.006;2023-05-21T06:29:43;101798.16;;;15.07;75.23
29417;BME280;28421;51.030;4.006;2023-05-21T06:32:08;101793.81;;;14.98;74.58
29417;BME280;28421;51.030;4.006;2023-05-21T06:34:34;101780.19;;;15.14;75.00
29417;BME280;28421;51.030;4.006;2023-05-21T06:37:00;101806.84;;;15.26;74.29
29417;BME280;28421;51.030;4.006;2023-05-21T06:39:25;101798.59;;;15.19;74.19
29417;BME280;28421;51.030;4.006;2023-05-21T06:41:52;101782.25;;;15.04;74.39
29417;BME280;28421;51.030;4.006;2023-05-21T06:44:37;101789.19;;;15.30;74.12
29417;BME280;28421;51.030;4.006;2023-05-21T06:47:11;101802.69;;;15.38;73.89
29417;BME280;28421;51.030;4.006;2023-05-21T06:49:38;101809.75;;;15.47;73.71
29417;BME280;28421;51.030;4.006;2023-05-21T06:52:03;101800.25;;;15.74;73.51
29417;BME280;28421;51.030;4.006;2023-05-21T06:54:29;101810.59;;;15.94;72.85
29417;BME280;28421;51.030;4.006;2023-05-21T06:56:55;101818.44;;;16.03;72.53
29417;BME280;28421;51.030;4.006;2023-05-21T06:59:20;101801.22;;;15.81;72.46
29417;BME280;28421;51.030;4.006;2023-05-21T07:01:46;101776.22;;;15.48;72.79
29417;BME280;28421;51.030;4.006;2023-05-21T07:04:11;101768.66;;;15.58;72.86
29417;BME280;28421;51.030;4.006;2023-05-21T07:06:40;101808.91;;;16.07;72.85
29417;BME280;28421;51.030;4.006;2023-05-21T07:09:06;101760.78;;;15.72;71.96
29417;BME280;28421;51.030;4.006;2023-05-21T07:11:31;101774.50;;;16.08;71.96
29417;BME280;28421;51.030;4.006;2023-05-21T07:13:59;101738.19;;;15.94;71.60
29417;BME280;28421;51.030;4.006;2023-05-21T07:16:25;101786.69;;;16.27;72.09
29417;BME280;28421;51.030;4.006;2023-05-21T07:18:50;101796.38;;;16.21;71.82
29417;BME280;28421;51.030;4.006;2023-05-21T07:21:16;101796.97;;;16.31;70.29
29417;BME280;28421;51.030;4.006;2023-05-21T07:23:41;101795.13;;;16.47;70.53
29417;BME280;28421;51.030;4.006;2023-05-21T07:26:08;101811.00;;;16.64;70.15
29417;BME280;28421;51.030;4.006;2023-05-21T07:28:34;101805.78;;;16.78;69.84
29417;BME280;28421;51.030;4.006;2023-05-21T07:31:00;101775.06;;;16.77;68.94
29417;BME280;28421;51.030;4.006;2023-05-21T07:33:32;101789.78;;;17.04;67.96
29417;BME280;28421;51.030;4.006;2023-05-21T07:35:57;101789.53;;;17.21;66.84
29417;BME280;28421;51.030;4.006;2023-05-21T07:38:23;101781.97;;;17.37;66.73
29417;BME280;28421;51.030;4.006;2023-05-21T07:40:48;101763.75;;;17.31;65.18
29417;BME280;28421;51.030;4.006;2023-05-21T07:43:14;101767.03;;;17.48;65.21
29417;BME280;28421;51.030;4.006;2023-05-21T07:45:40;101783.09;;;17.22;64.81
29417;BME280;28421;51.030;4.006;2023-05-21T07:48:06;101782.50;;;17.26;65.09
29417;BME280;28421;51.030;4.006;2023-05-21T07:50:34;101779.13;;;17.03;65.54
29417;BME280;28421;51.030;4.006;2023-05-21T07:53:02;101794.22;;;17.27;66.71
29417;BME280;28421;51.030;4.006;2023-05-21T07:55:28;101767.63;;;17.22;65.13
29417;BME280;28421;51.030;4.006;2023-05-21T07:57:54;101803.44;;;17.11;65.70
29417;BME280;28421;51.030;4.006;2023-05-21T08:00:26;101759.88;;;16.83;66.87
29417;BME280;28421;51.030;4.006;2023-05-21T08:02:55;101753.38;;;16.99;65.65
29417;BME280;28421;51.030;4.006;2023-05-21T08:05:21;101773.41;;;17.34;65.88
29417;BME280;28421;51.030;4.006;2023-05-21T08:07:48;101764.75;;;17.52;65.28
29417;BME280;28421;51.030;4.006;2023-05-21T08:10:14;101753.75;;;17.81;64.82
29417;BME280;28421;51.030;4.006;2023-05-21T08:12:40;101746.31;;;17.97;64.86
29417;BME280;28421;51.030;4.006;2023-05-21T08:15:07;101738.00;;;17.77;64.55
29417;BME280;28421;51.030;4.006;2023-05-21T08:17:36;101759.72;;;17.49;63.92
29417;BME280;28421;51.030;4.006;2023-05-21T08:20:02;101771.00;;;17.74;64.80
29417;BME280;28421;51.030;4.006;2023-05-21T08:22:30;101776.88;;;17.99;64.29
29417;BME280;28421;51.030;4.006;2023-05-21T08:24:55;101744.75;;;17.59;65.29
29417;BME280;28421;51.030;4.006;2023-05-21T08:27:21;101750.13;;;17.74;64.55
29417;BME280;28421;51.030;4.006;2023-05-21T08:29:46;101759.50;;;18.00;64.48
29417;BME280;28421;51.030;4.006;2023-05-21T08:32:11;101735.34;;;17.62;63.47
29417;BME280;28421;51.030;4.006;2023-05-21T08:34:37;101778.41;;;18.08;63.63
29417;BME280;28421;51.030;4.006;2023-05-21T08:37:35;101727.22;;;17.90;63.39
29417;BME280;28421;51.030;4.006;2023-05-21T08:40:16;101736.69;;;18.35;62.95
29417;BME280;28421;51.030;4.006;2023-05-21T08:42:43;101737.34;;;18.37;62.47
29417;BME280;28421;51.030;4.006;2023-05-21T08:45:21;101744.44;;;18.73;61.12
29417;BME280;28421;51.030;4.006;2023-05-21T08:47:55;101725.84;;;18.42;60.48
29417;BME280;28421;51.030;4.006;2023-05-21T08:50:26;101761.69;;;18.87;60.70
29417;BME280;28421;51.030;4.006;2023-05-21T08:52:54;101759.66;;;18.61;61.31
29417;BME280;28421;51.030;4.006;2023-05-21T08:55:20;101785.25;;;19.21;60.73
29417;BME280;28421;51.030;4.006;2023-05-21T08:57:48;101764.44;;;19.00;60.17
29417;BME280;28421;51.030;4.006;2023-05-21T09:00:16;101753.81;;;19.25;58.55
29417;BME280;28421;51.030;4.006;2023-05-21T09:02:42;101734.75;;;19.72;58.62
29417;BME280;28421;51.030;4.006;2023-05-21T09:05:09;101771.44;;;19.29;58.82
29417;BME280;28421;51.030;4.006;2023-05-21T09:07:46;101772.06;;;19.45;59.04
29417;BME280;28421;51.030;4.006;2023-05-21T09:10:49;101760.91;;;19.13;58.63
29417;BME280;28421;51.030;4.006;2023-05-21T09:13:19;101715.75;;;18.91;60.17
29417;BME280;28421;51.030;4.006;2023-05-21T09:15:46;101762.09;;;18.84;60.00
29417;BME280;28421;51.030;4.006;2023-05-21T09:18:13;101712.63;;;18.87;61.98
29417;BME280;28421;51.030;4.006;2023-05-21T09:21:24;101763.88;;;19.51;61.66
29417;BME280;28421;51.030;4.006;2023-05-21T09:23:59;101753.84;;;19.85;59.36
29417;BME280;28421;51.030;4.006;2023-05-21T09:26:26;101718.16;;;19.60;57.82
29417;BME280;28421;51.030;4.006;2023-05-21T09:28:57;101704.31;;;19.42;58.11
29417;BME280;28421;51.030;4.006;2023-05-21T09:31:23;101714.38;;;19.48;58.26
29417;BME280;28421;51.030;4.006;2023-05-21T09:33:50;101679.75;;;19.55;59.04
29417;BME280;28421;51.030;4.006;2023-05-21T09:36:19;101712.63;;;20.13;58.94
29417;BME280;28421;51.030;4.006;2023-05-21T09:38:49;101733.69;;;19.99;57.47
29417;BME280;28421;51.030;4.006;2023-05-21T09:41:17;101728.34;;;20.31;58.84
29417;BME280;28421;51.030;4.006;2023-05-21T09:43:44;101760.38;;;19.91;58.80
29417;BME280;28421;51.030;4.006;2023-05-21T09:46:11;101718.16;;;19.73;58.01
29417;BME280;28421;51.030;4.006;2023-05-21T09:48:41;101734.88;;;20.23;57.09
29417;BME280;28421;51.030;4.006;2023-05-21T09:51:18;101711.53;;;20.34;58.90
29417;BME280;28421;51.030;4.006;2023-05-21T09:53:49;101718.78;;;20.67;57.48
29417;BME280;28421;51.030;4.006;2023-05-21T09:56:22;101707.41;;;19.98;56.39
29417;BME280;28421;51.030;4.006;2023-05-21T09:58:53;101704.16;;;20.41;56.89
29417;BME280;28421;51.030;4.006;2023-05-21T10:01:19;101690.38;;;20.03;57.16
29417;BME280;28421;51.030;4.006;2023-05-21T10:03:53;101724.09;;;20.48;57.89
29417;BME280;28421;51.030;4.006;2023-05-21T10:06:20;101707.00;;;20.08;58.06
29417;BME280;28421;51.030;4.006;2023-05-21T10:08:50;101707.53;;;20.30;57.70
29417;BME280;28421;51.030;4.006;2023-05-21T10:11:18;101719.56;;;20.16;57.40
29417;BME280;28421;51.030;4.006;2023-05-21T10:13:51;101705.34;;;20.58;57.69
29417;BME280;28421;51.030;4.006;2023-05-21T10:16:20;101688.91;;;21.03;57.72
29417;BME280;28421;51.030;4.006;2023-05-21T10:18:46;101697.84;;;20.85;57.34
29417;BME280;28421;51.030;4.006;2023-05-21T10:21:14;101704.63;;;20.25;56.54
29417;BME280;28421;51.030;4.006;2023-05-21T10:23:41;101666.94;;;20.53;57.55
29417;BME280;28421;51.030;4.006;2023-05-21T10:26:08;101671.13;;;19.78;58.10
29417;BME280;28421;51.030;4.006;2023-05-21T10:28:35;101684.63;;;20.38;57.82
29417;BME280;28421;51.030;4.006;2023-05-21T10:31:01;101689.38;;;20.62;57.18
29417;BME280;28421;51.030;4.006;2023-05-21T10:33:28;101660.81;;;20.58;56.29
29417;BME280;28421;51.030;4.006;2023-05-21T10:35:57;101655.72;;;21.25;56.81
29417;BME280;28421;51.030;4.006;2023-05-21T10:38:23;101667.72;;;21.24;56.60
29417;BME280;28421;51.030;4.006;2023-05-21T10:40:49;101657.38;;;21.32;55.89
29417;BME280;28421;51.030;4.006;2023-05-21T10:51:33;101663.13;;;20.48;58.18
29417;BME280;28421;51.030;4.006;2023-05-21T10:54:17;101673.38;;;20.66;58.46
29417;BME280;28421;51.030;4.006;2023-05-21T11:01:56;101613.34;;;21.09;57.67
29417;BME280;28421;51.030;4.006;2023-05-21T11:04:25;101647.91;;;21.28;56.45
29417;BME280;28421;51.030;4.006;2023-05-21T11:06:51;101639.72;;;20.97;57.64
29417;BME280;28421;51.030;4.006;2023-05-21T11:09:17;101643.94;;;20.99;57.50
29417;BME280;28421;51.030;4.006;2023-05-21T11:11:52;101662.59;;;21.02;57.03
29417;BME280;28421;51.030;4.006;2023-05-21T11:16:56;101656.31;;;20.70;56.91
29417;BME280;28421;51.030;4.006;2023-05-21T11:19:34;101651.06;;;21.75;56.00
29417;BME280;28421;51.030;4.006;2023-05-21T11:22:07;101672.13;;;21.25;55.59
29417;BME280;28421;51.030;4.006;2023-05-21T11:24:36;101649.53;;;21.11;56.36
29417;BME280;28421;51.030;4.006;2023-05-21T11:27:03;101638.38;;;21.06;56.51
29417;BME280;28421;51.030;4.006;2023-05-21T11:29:41;101650.50;;;21.48;56.77
29417;BME280;28421;51.030;4.006;2023-05-21T11:32:09;101635.53;;;21.88;55.69
29417;BME280;28421;51.030;4.006;2023-05-21T11:39:55;101663.47;;;21.28;56.28
29417;BME280;28421;51.030;4.006;2023-05-21T11:44:55;101656.94;;;21.29;55.50
29417;BME280;28421;51.030;4.006;2023-05-21T11:47:26;101647.53;;;21.68;56.39
29417;BME280;28421;51.030;4.006;2023-05-21T11:49:52;101631.00;;;21.81;55.55
29417;BME280;28421;51.030;4.006;2023-05-21T11:52:18;101627.16;;;22.01;54.54
29417;BME280;28421;51.030;4.006;2023-05-21T11:54:48;101653.03;;;21.87;54.90
29417;BME280;28421;51.030;4.006;2023-05-21T11:57:16;101613.09;;;21.10;55.14
29417;BME280;28421;51.030;4.006;2023-05-21T11:59:47;101621.78;;;21.57;56.52
29417;BME280;28421;51.030;4.006;2023-05-21T12:02:14;101636.13;;;21.53;56.14
29417;BME280;28421;51.030;4.006;2023-05-21T12:04:45;101611.00;;;21.13;58.20
29417;BME280;28421;51.030;4.006;2023-05-21T12:07:12;101613.50;;;20.89;56.51
29417;BME280;28421;51.030;4.006;2023-05-21T12:09:42;101658.38;;;21.56;56.98
29417;BME280;28421;51.030;4.006;2023-05-21T12:12:09;101622.81;;;21.56;56.68
29417;BME280;28421;51.030;4.006;2023-05-21T12:14:36;101628.97;;;21.02;56.10
29417;BME280;28421;51.030;4.006;2023-05-21T12:17:03;101628.97;;;21.27;57.68
29417;BME280;28421;51.030;4.006;2023-05-21T12:19:38;101643.06;;;21.92;56.11
29417;BME280;28421;51.030;4.006;2023-05-21T12:22:06;101612.44;;;21.65;54.99
29417;BME280;28421;51.030;4.006;2023-05-21T12:24:32;101649.41;;;22.59;56.36
29417;BME280;28421;51.030;4.006;2023-05-21T12:26:59;101635.53;;;21.88;55.65
29417;BME280;28421;51.030;4.006;2023-05-21T12:29:30;101633.41;;;22.45;54.61
29417;BME280;28421;51.030;4.006;2023-05-21T12:31:59;101619.00;;;22.31;53.72
29417;BME280;28421;51.030;4.006;2023-05-21T12:37:29;101624.03;;;21.97;54.70
29417;BME280;28421;51.030;4.006;2023-05-21T12:40:01;101631.56;;;22.02;55.55
29417;BME280;28421;51.030;4.006;2023-05-21T12:42:32;101656.00;;;21.85;55.24
29417;BME280;28421;51.030;4.006;2023-05-21T12:45:05;101647.78;;;22.03;56.07
29417;BME280;28421;51.030;4.006;2023-05-21T12:47:31;101655.59;;;21.63;55.83
29417;BME280;28421;51.030;4.006;2023-05-21T12:50:01;101653.97;;;21.30;56.42
29417;BME280;28421;51.030;4.006;2023-05-21T12:52:28;101645.75;;;21.37;56.63
29417;BME280;28421;51.030;4.006;2023-05-21T12:54:55;101640.19;;;21.44;56.73
29417;BME280;28421;51.030;4.006;2023-05-21T12:57:26;101642.84;;;21.94;56.26
29417;BME280;28421;51.030;4.006;2023-05-21T12:59:56;101617.06;;;21.83;55.69
29417;BME280;28421;51.030;4.006;2023-05-21T13:02:25;101638.13;;;21.82;55.26
29417;BME280;28421;51.030;4.006;2023-05-21T13:04:59;101634.88;;;22.29;55.57
29417;BME280;28421;51.030;4.006;2023-05-21T13:07:25;101605.09;;;22.32;53.98
29417;BME280;28421;51.030;4.006;2023-05-21T13:09:52;101615.91;;;22.09;54.73
29417;BME280;28421;51.030;4.006;2023-05-21T13:12:19;101621.16;;;22.11;55.29
29417;BME280;28421;51.030;4.006;2023-05-21T13:14:45;101622.16;;;21.61;55.15
29417;BME280;28421;51.030;4.006;2023-05-21T13:17:11;101630.22;;;21.93;55.83
29417;BME280;28421;51.030;4.006;2023-05-21T13:19:36;101622.63;;;21.95;54.80
29417;BME280;28421;51.030;4.006;2023-05-21T13:22:02;101605.66;;;21.24;55.52